»·PEaware :: SWA128 KRNO-KPDX

SWA128 :: KRNO-KPDX

FLIGHT INFORMATION

Flight Status: Arrived
Operator:
Southwest Airlines
More flights by this operator :: More flights under this callsign
Pilot: Steve F. (26981)
Aircraft: BOEING 737-800
(B738)
More flights by this aircraft type
Origin: KRNO Reno/Tahoe Intl
United States
Destination: KPDX Portland Intl
United States
More flights between these airports :: More routes between these airports
Route: +PVINE3 HALLE WNDEL SOERN TMBRS2
File this flight plan on PilotEdge
Remarks:
Altitude:
(Current/Filed)
36,000ft
Speed:
(Current/Filed)
430kts
Departed: 24-Feb-20 06:52 PM
Arrived: 24-Feb-20 08:07 PM
Distance/Time
Traveled:
386nm/1:15
Distance/Time
To Go:
Arrived

Flight Plot

Page will automatically refresh every two minutes.


Map Options




Map Legend


Flown Route
Filed Route
Departure Airport
Arrival Airport
Navaid (VOR, NDB)
Fix

Horizontal Profiles

Position Reports

Time Latitude Longitude Heading Altitude Ground
Speed
24-Feb-20 18:33 39.505933 -119.772831 181 4423ft 0kts
24-Feb-20 18:33 39.505933 -119.772831 181 4423ft 0kts
24-Feb-20 18:34 39.505933 -119.772831 181 4423ft 0kts
24-Feb-20 18:35 39.505933 -119.772831 181 4423ft 0kts
24-Feb-20 18:36 39.505933 -119.772831 181 4423ft 0kts
24-Feb-20 18:37 39.505933 -119.772831 181 4423ft 0kts
24-Feb-20 18:38 39.505933 -119.772831 181 4423ft 0kts
24-Feb-20 18:39 39.505933 -119.772831 181 4423ft 0kts
24-Feb-20 18:40 39.505933 -119.772831 181 4423ft 0kts
24-Feb-20 18:41 39.505933 -119.772831 181 4423ft 0kts
24-Feb-20 18:42 39.506440 -119.773074 132 4423ft 0kts
24-Feb-20 18:43 39.506439 -119.773073 132 4423ft 0kts
24-Feb-20 18:44 39.506438 -119.773072 132 4423ft 0kts
24-Feb-20 18:45 39.506437 -119.773071 132 4423ft 0kts
24-Feb-20 18:46 39.506430 -119.772801 82 4423ft 4kts
24-Feb-20 18:47 39.504062 -119.771601 179 4423ft 19kts
24-Feb-20 18:48 39.496413 -119.771610 180 4423ft 36kts
24-Feb-20 18:49 39.486995 -119.771633 178 4423ft 25kts
24-Feb-20 18:50 39.483797 -119.770611 91 4423ft 11kts
24-Feb-20 18:51 39.495358 -119.769260 0 4423ft 131kts
24-Feb-20 18:52 39.548529 -119.768761 1 6228ft 232kts
24-Feb-20 18:53 39.619166 -119.779939 336 8799ft 272kts
24-Feb-20 18:54 39.688178 -119.818412 336 12234ft 275kts
24-Feb-20 18:55 39.766615 -119.863033 336 14240ft 326kts
24-Feb-20 18:56 39.850991 -119.911491 336 17288ft 339kts
24-Feb-20 18:57 39.938435 -119.964338 331 19398ft 351kts
24-Feb-20 18:58 40.023754 -120.030354 330 21633ft 362kts
24-Feb-20 18:59 40.111964 -120.098531 330 23828ft 374kts
24-Feb-20 19:00 40.203564 -120.168821 330 25735ft 387kts
24-Feb-20 19:01 40.297282 -120.241387 330 27421ft 397kts
24-Feb-20 19:02 40.393638 -120.315540 333 28941ft 406kts
24-Feb-20 19:03 40.498139 -120.376138 337 30347ft 412kts
24-Feb-20 19:04 40.602735 -120.434829 336 32117ft 405kts
24-Feb-20 19:05 40.705708 -120.493220 336 33652ft 402kts
24-Feb-20 19:06 40.807936 -120.551114 336 35091ft 398kts
24-Feb-20 19:07 40.909291 -120.608896 336 36417ft 394kts
24-Feb-20 19:08 41.010890 -120.667098 335 36455ft 394kts
24-Feb-20 19:09 41.110825 -120.724563 335 36459ft 392kts
24-Feb-20 19:10 41.211016 -120.782372 335 36463ft 392kts
24-Feb-20 19:11 41.311103 -120.840324 335 36465ft 391kts
24-Feb-20 19:12 41.410818 -120.898257 335 36469ft 392kts
24-Feb-20 19:13 41.510672 -120.956467 335 36478ft 392kts
24-Feb-20 19:14 41.610673 -121.014961 335 36480ft 392kts
24-Feb-20 19:15 41.710908 -121.073791 335 36481ft 392kts
24-Feb-20 19:16 41.810745 -121.132592 335 36481ft 393kts
24-Feb-20 19:17 41.910787 -121.191721 335 36483ft 394kts
24-Feb-20 19:18 42.011305 -121.251321 335 36490ft 395kts
24-Feb-20 19:19 42.110900 -121.310581 335 36489ft 391kts
24-Feb-20 19:20 42.210711 -121.370178 335 36492ft 392kts
24-Feb-20 19:21 42.310439 -121.429938 335 36492ft 393kts
24-Feb-20 19:22 42.410384 -121.490029 335 36493ft 393kts
24-Feb-20 19:23 42.510103 -121.550202 335 36495ft 393kts
24-Feb-20 19:24 42.609716 -121.610518 335 36498ft 392kts
24-Feb-20 19:25 42.709010 -121.670848 335 36509ft 390kts
24-Feb-20 19:26 42.808059 -121.731058 334 36521ft 389kts
24-Feb-20 19:27 42.906915 -121.791661 334 36538ft 388kts
24-Feb-20 19:28 43.005451 -121.852385 333 36548ft 387kts
24-Feb-20 19:29 43.099342 -121.924127 329 36555ft 386kts
24-Feb-20 19:30 43.192444 -121.997096 329 36560ft 385kts
24-Feb-20 19:31 43.286472 -122.070078 329 36566ft 390kts
24-Feb-20 19:32 43.380584 -122.143703 329 36575ft 388kts
24-Feb-20 19:33 43.474259 -122.217325 329 36592ft 387kts
24-Feb-20 19:34 43.567987 -122.290979 329 35689ft 387kts
24-Feb-20 19:35 43.661946 -122.365101 329 33991ft 391kts
24-Feb-20 19:36 43.756911 -122.440302 329 32289ft 392kts
24-Feb-20 19:37 43.849617 -122.513635 329 30590ft 376kts
24-Feb-20 19:38 43.939054 -122.584404 329 28887ft 365kts
24-Feb-20 19:39 44.026256 -122.654106 328 27186ft 357kts
24-Feb-20 19:40 44.111253 -122.722365 328 25480ft 348kts
24-Feb-20 19:41 44.205189 -122.745430 356 23778ft 346kts
24-Feb-20 19:42 44.300009 -122.738085 358 22076ft 335kts
24-Feb-20 19:43 44.391890 -122.729295 358 20372ft 325kts
24-Feb-20 19:44 44.480945 -122.720510 358 18674ft 317kts
24-Feb-20 19:45 44.567974 -122.711859 358 17022ft 309kts
24-Feb-20 19:46 44.650989 -122.703566 358 15819ft 293kts
24-Feb-20 19:47 44.732477 -122.695366 359 14131ft 294kts
24-Feb-20 19:48 44.813806 -122.687172 359 12529ft 292kts
24-Feb-20 19:49 44.894541 -122.679051 359 11065ft 286kts
24-Feb-20 19:50 44.968437 -122.671587 359 10955ft 255kts
24-Feb-20 19:51 45.041095 -122.664251 0 9886ft 261kts
24-Feb-20 19:52 45.112294 -122.657003 0 8928ft 257kts
24-Feb-20 19:53 45.183448 -122.649731 1 7995ft 253kts
24-Feb-20 19:54 45.253399 -122.647214 345 7568ft 250kts
24-Feb-20 19:55 45.318425 -122.680548 336 7167ft 247kts
24-Feb-20 19:56 45.382400 -122.715828 337 6380ft 245kts
24-Feb-20 19:57 45.444904 -122.750131 337 5279ft 236kts
24-Feb-20 19:58 45.504047 -122.781558 339 4173ft 218kts
24-Feb-20 19:59 45.560298 -122.809499 339 3100ft 211kts
24-Feb-20 20:00 45.603636 -122.863002 311 3132ft 206kts
24-Feb-20 20:01 45.651816 -122.869680 38 2383ft 186kts
24-Feb-20 20:02 45.664788 -122.804234 98 2361ft 173kts
24-Feb-20 20:03 45.643068 -122.744173 119 2053ft 170kts
24-Feb-20 20:04 45.621238 -122.688630 118 1158ft 153kts
24-Feb-20 20:05 45.600517 -122.635201 119 269ft 151kts
24-Feb-20 20:06 45.589280 -122.605129 50 38ft 11kts
24-Feb-20 20:07 45.589516 -122.604785 44 38ft 0kts
24-Feb-20 20:08 45.590383 -122.603569 44 38ft 18kts
24-Feb-20 20:09 45.591042 -122.597836 119 38ft 16kts
24-Feb-20 20:10 45.591108 -122.596238 29 38ft 0kts
24-Feb-20 20:11 45.591108 -122.596238 29 38ft 0kts

Navigation Log

Ident Type
Flight plan parsing failed, navigation log unavailable